Time;durP1;ratioP1;P1;durP2;ratioP2;P2;SDS_P1;SDS_P2;PMS_P1;PMS_P2;Temp;Humidity;BMP_temperature;BMP_pressure;BME280_temperature;BME280_humidity;BME280_pressure;Samples;Min_cycle;Max_cycle;Signal;HPM_P1;HPM_P2
2022/01/09 00:01:41;;;;;;;28.50;4.73;;;6.70;90.30;;;;;;6192001;23;20161;-88
2022/01/09 00:04:07;;;;;;;28.87;5.70;;;6.60;90.10;;;;;;6191414;23;20724;-88
2022/01/09 00:06:33;;;;;;;23.53;5.17;;;6.70;90.00;;;;;;6218201;23;20673;-87
2022/01/09 00:08:59;;;;;;;22.37;5.17;;;6.80;89.90;;;;;;6191721;23;20188;-88
2022/01/09 00:11:26;;;;;;;30.23;4.18;;;6.90;89.80;;;;;;6192137;23;20384;-88
2022/01/09 00:13:56;;;;;;;28.55;4.82;;;6.80;89.50;;;;;;6191627;23;20181;-88
2022/01/09 00:16:22;;;;;;;17.85;5.57;;;6.80;89.50;;;;;;6191911;23;20631;-87
2022/01/09 00:18:49;;;;;;;24.88;5.95;;;6.80;89.30;;;;;;6194235;23;20200;-88
2022/01/09 00:21:16;;;;;;;28.73;5.22;;;6.80;89.40;;;;;;6197214;23;20248;-87
2022/01/09 00:23:42;;;;;;;38.30;5.57;;;6.70;88.90;;;;;;6192401;23;20248;-88
2022/01/09 00:26:08;;;;;;;24.60;5.03;;;6.80;88.70;;;;;;6192303;23;20200;-87
2022/01/09 00:28:35;;;;;;;34.25;5.40;;;6.80;88.70;;;;;;6192818;23;20184;-87
2022/01/09 00:31:01;;;;;;;25.95;5.13;;;6.80;88.00;;;;;;6197239;23;20164;-87
2022/01/09 00:33:27;;;;;;;28.37;4.40;;;6.80;86.40;;;;;;6191482;23;20180;-87
2022/01/09 00:35:54;;;;;;;27.63;5.10;;;6.80;86.00;;;;;;6191874;23;20455;-88
2022/01/09 00:38:20;;;;;;;28.92;5.05;;;6.80;85.80;;;;;;6192871;23;20169;-87
2022/01/09 00:40:46;;;;;;;28.52;5.90;;;6.80;86.20;;;;;;6190691;23;20154;-87
2022/01/09 00:43:12;;;;;;;38.33;6.00;;;6.90;86.80;;;;;;6217495;23;20149;-88
2022/01/09 00:45:39;;;;;;;13.73;4.82;;;6.90;87.40;;;;;;6191442;23;20173;-87
2022/01/09 00:48:06;;;;;;;24.98;6.47;;;7.00;87.90;;;;;;6191824;23;20157;-88
2022/01/09 00:50:33;;;;;;;24.33;4.97;;;6.90;88.10;;;;;;6191163;23;20188;-87
2022/01/09 00:52:59;;;;;;;23.05;5.45;;;6.90;88.00;;;;;;6190284;23;20184;-87
2022/01/09 00:55:26;;;;;;;22.52;4.85;;;6.90;87.80;;;;;;6192567;23;20185;-87
2022/01/09 00:57:51;;;;;;;39.50;5.88;;;7.00;87.70;;;;;;6194884;23;20188;-88
2022/01/09 01:00:17;;;;;;;27.13;5.20;;;7.00;87.50;;;;;;6223977;23;20592;-87
2022/01/09 01:02:43;;;;;;;22.63;4.93;;;7.00;87.20;;;;;;6224855;23;20155;-87
2022/01/09 01:05:10;;;;;;;22.20;5.25;;;7.00;87.20;;;;;;6199354;23;20505;-86
2022/01/09 01:07:35;;;;;;;25.48;4.43;;;7.00;86.80;;;;;;6195384;23;20169;-87
2022/01/09 01:10:02;;;;;;;24.10;4.83;;;7.00;87.10;;;;;;6191367;23;20311;-87
2022/01/09 01:12:29;;;;;;;34.78;5.95;;;7.00;86.10;;;;;;6190918;23;20153;-87
2022/01/09 01:14:55;;;;;;;24.73;3.85;;;6.90;85.60;;;;;;6218081;23;20154;-87
2022/01/09 01:17:21;;;;;;;15.93;3.27;;;6.90;85.00;;;;;;6218479;23;20227;-87
2022/01/09 01:19:47;;;;;;;29.95;4.25;;;6.90;84.40;;;;;;6201311;23;20440;-86
2022/01/09 01:22:14;;;;;;;16.80;4.33;;;6.90;84.20;;;;;;6193675;23;20164;-87
2022/01/09 01:24:41;;;;;;;20.10;5.05;;;6.90;84.20;;;;;;6190059;23;20415;-87
2022/01/09 01:27:06;;;;;;;7.63;3.08;;;7.00;84.10;;;;;;6190842;23;20177;-87
2022/01/09 01:29:32;;;;;;;11.30;3.00;;;6.90;83.70;;;;;;6219021;23;20191;-88
2022/01/09 01:31:58;;;;;;;9.37;4.27;;;6.90;83.80;;;;;;6205930;23;20164;-87
2022/01/09 01:34:24;;;;;;;16.90;3.70;;;6.90;83.60;;;;;;6211152;23;20437;-88
2022/01/09 01:36:49;;;;;;;13.77;2.67;;;7.10;84.00;;;;;;6198753;23;20798;-87
2022/01/09 01:39:15;;;;;;;23.37;3.87;;;7.00;83.70;;;;;;6191185;23;20164;-87
2022/01/09 01:41:41;;;;;;;10.30;3.73;;;7.00;83.70;;;;;;6217116;23;20485;-87
2022/01/09 01:44:11;;;;;;;28.57;5.80;;;6.90;83.60;;;;;;6190495;23;20175;-87
2022/01/09 01:46:38;;;;;;;17.55;4.63;;;7.00;83.60;;;;;;6198217;23;20510;-88
2022/01/09 01:49:05;;;;;;;7.95;3.67;;;7.00;83.60;;;;;;6209353;23;20192;-87
2022/01/09 01:51:44;;;;;;;20.85;4.68;;;7.00;83.00;;;;;;6191165;23;20153;-87
2022/01/09 01:54:11;;;;;;;16.58;4.57;;;7.00;82.60;;;;;;6190912;23;20141;-87
2022/01/09 01:56:37;;;;;;;22.42;4.53;;;6.90;82.70;;;;;;6191529;23;20177;-87
2022/01/09 01:59:03;;;;;;;16.92;3.28;;;6.90;82.60;;;;;;6190544;23;20417;-87
2022/01/09 02:01:29;;;;;;;17.93;4.63;;;6.90;82.50;;;;;;6190349;23;20157;-88
2022/01/09 02:03:55;;;;;;;12.07;3.38;;;6.90;82.70;;;;;;6189997;23;20165;-88
2022/01/09 02:06:21;;;;;;;23.63;4.47;;;6.90;82.80;;;;;;6222630;23;20544;-87
2022/01/09 02:08:47;;;;;;;14.77;3.55;;;6.90;82.90;;;;;;6190854;23;20177;-88
2022/01/09 02:11:13;;;;;;;9.30;3.07;;;7.00;82.70;;;;;;6190998;23;20157;-87
2022/01/09 02:13:45;;;;;;;14.65;2.25;;;6.90;82.70;;;;;;6190058;23;20285;-88
2022/01/09 02:16:17;;;;;;;25.88;3.50;;;6.90;82.40;;;;;;6220698;23;20226;-87
2022/01/09 02:18:46;;;;;;;14.95;3.17;;;6.90;82.20;;;;;;6193102;23;20216;-88
2022/01/09 02:21:13;;;;;;;15.75;2.95;;;6.80;81.80;;;;;;6191523;23;20160;-87
2022/01/09 02:23:44;;;;;;;11.23;3.05;;;6.90;82.00;;;;;;6191031;23;20240;-87
2022/01/09 02:26:10;;;;;;;16.83;3.97;;;6.80;81.70;;;;;;6193645;23;20196;-87
2022/01/09 02:28:36;;;;;;;18.90;4.00;;;6.80;81.30;;;;;;6196574;23;20185;-87
2022/01/09 02:31:01;;;;;;;12.23;2.60;;;6.80;81.10;;;;;;6224448;23;20392;-87
2022/01/09 02:33:27;;;;;;;25.33;2.87;;;6.80;80.90;;;;;;6197368;23;20241;-87
2022/01/09 02:35:54;;;;;;;15.73;3.80;;;6.80;81.00;;;;;;6195246;23;20397;-87
2022/01/09 02:38:20;;;;;;;17.77;3.83;;;6.70;80.80;;;;;;6191065;23;20193;-87
2022/01/09 02:40:52;;;;;;;12.75;3.08;;;6.70;80.70;;;;;;6191330;23;20153;-87
2022/01/09 02:43:18;;;;;;;8.23;2.70;;;6.80;80.70;;;;;;6190253;23;20184;-87
2022/01/09 02:45:46;;;;;;;13.38;3.03;;;6.80;80.40;;;;;;6189824;23;20173;-87
2022/01/09 02:48:12;;;;;;;13.90;3.40;;;6.80;80.40;;;;;;6190024;23;20169;-87
2022/01/09 02:50:43;;;;;;;28.03;3.20;;;6.80;80.20;;;;;;6190614;23;20568;-87
2022/01/09 02:53:20;;;;;;;7.55;2.65;;;6.80;80.00;;;;;;6189755;23;20233;-87
2022/01/09 02:55:46;;;;;;;18.35;3.13;;;6.70;80.00;;;;;;6189662;23;20181;-88
2022/01/09 02:58:12;;;;;;;14.35;2.90;;;6.70;79.90;;;;;;6190132;23;20735;-86
2022/01/09 03:00:40;;;;;;;15.35;2.80;;;6.70;80.00;;;;;;6190789;23;20165;-87
2022/01/09 03:03:06;;;;;;;13.27;3.05;;;6.70;80.40;;;;;;6191071;23;20258;-87
2022/01/09 03:05:32;;;;;;;9.17;2.87;;;6.80;80.40;;;;;;6191666;23;20565;-87
2022/01/09 03:07:58;;;;;;;11.45;3.05;;;6.70;80.10;;;;;;6191812;23;20746;-87
2022/01/09 03:10:24;;;;;;;12.85;2.65;;;6.70;80.20;;;;;;6191853;23;20184;-87
2022/01/09 03:12:52;;;;;;;24.02;3.95;;;6.70;80.70;;;;;;6191971;23;20157;-88
2022/01/09 03:15:19;;;;;;;14.68;2.85;;;6.70;80.60;;;;;;6192672;23;20157;-88
2022/01/09 03:17:45;;;;;;;10.60;3.10;;;6.60;80.10;;;;;;6225299;23;20232;-87
2022/01/09 03:20:22;;;;;;;10.43;2.97;;;6.70;80.10;;;;;;6218684;23;20156;-87
2022/01/09 03:22:49;;;;;;;16.38;3.40;;;6.70;80.00;;;;;;6192750;23;20149;-88
2022/01/09 03:25:15;;;;;;;11.27;2.90;;;6.70;79.50;;;;;;6227125;23;20150;-87
2022/01/09 03:27:42;;;;;;;17.75;2.95;;;6.70;79.60;;;;;;6211053;23;20157;-87
2022/01/09 03:30:10;;;;;;;9.23;2.47;;;6.60;79.50;;;;;;6228986;23;20616;-87
2022/01/09 03:32:37;;;;;;;16.40;3.50;;;6.60;79.50;;;;;;6194105;23;20153;-87
2022/01/09 03:35:08;;;;;;;6.40;3.00;;;6.60;79.70;;;;;;6219096;23;20149;-88
2022/01/09 03:37:35;;;;;;;10.15;2.72;;;6.70;79.80;;;;;;6200798;23;20149;-87
2022/01/09 03:40:01;;;;;;;8.07;2.60;;;6.70;79.90;;;;;;6213915;23;20188;-87
2022/01/09 03:42:26;;;;;;;19.35;4.03;;;6.60;79.80;;;;;;6196130;23;20157;-87
2022/01/09 03:44:56;;;;;;;12.87;3.50;;;6.60;80.10;;;;;;6193443;23;20165;-87
2022/01/09 03:47:22;;;;;;;13.98;2.90;;;6.60;80.20;;;;;;6192431;23;20188;-87
2022/01/09 03:49:50;;;;;;;29.17;2.97;;;6.60;80.50;;;;;;6221326;23;20203;-87
2022/01/09 03:52:16;;;;;;;16.70;2.63;;;6.70;80.90;;;;;;6232057;23;20375;-87
2022/01/09 03:54:42;;;;;;;12.32;2.95;;;6.70;81.00;;;;;;6236308;23;20157;-87
2022/01/09 03:57:08;;;;;;;16.27;3.30;;;6.70;81.10;;;;;;6205651;23;20177;-87
2022/01/09 03:59:33;;;;;;;12.70;3.33;;;6.80;81.10;;;;;;6202725;23;20183;-87
2022/01/09 04:02:00;;;;;;;8.70;2.60;;;6.70;80.90;;;;;;6204091;23;20157;-87
2022/01/09 04:04:26;;;;;;;14.93;2.97;;;6.70;80.90;;;;;;6203290;23;20184;-87
2022/01/09 04:06:52;;;;;;;15.07;3.07;;;6.80;80.90;;;;;;6194776;23;20568;-87
2022/01/09 04:09:20;;;;;;;9.53;3.07;;;6.80;80.80;;;;;;6190158;23;20431;-87
2022/01/09 04:11:48;;;;;;;24.42;3.63;;;6.80;80.50;;;;;;6189918;23;20264;-87
2022/01/09 04:14:14;;;;;;;12.40;2.50;;;6.70;80.70;;;;;;6189061;23;20188;-86
2022/01/09 04:16:40;;;;;;;21.33;3.33;;;6.90;81.00;;;;;;6216218;23;20176;-87
2022/01/09 04:19:10;;;;;;;11.85;2.75;;;6.80;80.40;;;;;;6189893;23;20188;-86
2022/01/09 04:21:35;;;;;;;10.98;3.20;;;6.90;80.30;;;;;;6190789;23;20183;-87
2022/01/09 04:24:01;;;;;;;16.37;3.50;;;6.80;80.00;;;;;;6189198;23;20615;-87
2022/01/09 04:26:27;;;;;;;7.13;2.77;;;6.80;79.90;;;;;;6189586;23;20525;-86
2022/01/09 04:28:52;;;;;;;9.33;3.70;;;6.80;80.10;;;;;;6216428;23;20240;-86
2022/01/09 04:31:18;;;;;;;12.53;3.13;;;6.80;79.90;;;;;;6189847;23;20161;-87
2022/01/09 04:33:44;;;;;;;10.60;2.77;;;6.80;79.70;;;;;;6217021;23;20380;-88
2022/01/09 04:36:09;;;;;;;5.57;2.50;;;6.80;79.40;;;;;;6190970;23;20178;-87
2022/01/09 04:38:35;;;;;;;11.53;2.57;;;6.70;79.40;;;;;;6191983;23;20184;-87
2022/01/09 04:41:01;;;;;;;12.70;3.17;;;6.70;79.40;;;;;;6192829;23;20149;-87
2022/01/09 04:43:28;;;;;;;7.53;3.00;;;6.80;79.50;;;;;;6217373;23;20588;-88
2022/01/09 04:45:54;;;;;;;12.93;2.63;;;6.80;79.40;;;;;;6189911;23;20403;-88
2022/01/09 04:48:19;;;;;;;20.13;3.47;;;6.90;79.40;;;;;;6190124;23;20181;-87
2022/01/09 04:50:46;;;;;;;5.10;2.30;;;6.90;79.50;;;;;;6190264;23;20480;-87
2022/01/09 04:53:12;;;;;;;17.88;2.97;;;7.00;79.50;;;;;;6190402;23;20603;-87
2022/01/09 04:55:41;;;;;;;13.33;2.60;;;7.00;79.60;;;;;;6189802;23;20173;-88
2022/01/09 04:58:08;;;;;;;12.27;3.65;;;6.90;79.40;;;;;;6189880;23;20164;-87
2022/01/09 05:00:34;;;;;;;6.32;2.60;;;6.90;79.70;;;;;;6189734;23;20168;-88
2022/01/09 05:03:00;;;;;;;9.50;2.35;;;6.80;79.90;;;;;;6189879;23;20157;-88
2022/01/09 05:05:26;;;;;;;9.33;2.47;;;6.70;80.10;;;;;;6189665;23;20158;-88
2022/01/09 05:07:52;;;;;;;3.13;2.00;;;6.80;80.20;;;;;;6190209;23;20262;-87
2022/01/09 05:10:17;;;;;;;10.23;2.20;;;6.70;80.20;;;;;;6190324;23;20428;-88
2022/01/09 05:12:43;;;;;;;11.30;2.63;;;6.80;80.40;;;;;;6190095;23;20381;-88
2022/01/09 05:15:10;;;;;;;17.00;2.73;;;6.70;80.40;;;;;;6190788;23;20221;-87
2022/01/09 05:17:35;;;;;;;10.60;2.30;;;6.70;80.40;;;;;;6193269;23;20165;-88
2022/01/09 05:20:02;;;;;;;11.13;2.67;;;6.80;80.30;;;;;;6207490;23;20153;-87
2022/01/09 05:22:28;;;;;;;7.20;2.03;;;6.90;80.20;;;;;;6205608;23;20569;-87
2022/01/09 05:24:57;;;;;;;20.92;2.85;;;6.70;79.80;;;;;;6199430;23;20185;-87
2022/01/09 05:27:24;;;;;;;11.52;2.60;;;6.70;79.60;;;;;;6197004;23;20207;-87
2022/01/09 05:29:50;;;;;;;8.38;2.17;;;6.70;79.60;;;;;;6196415;23;20263;-87
2022/01/09 05:32:16;;;;;;;8.10;2.60;;;6.70;79.50;;;;;;6222744;23;20199;-87
2022/01/09 05:34:42;;;;;;;3.90;2.40;;;6.60;79.10;;;;;;6215954;23;20423;-87
2022/01/09 05:37:08;;;;;;;15.37;2.57;;;6.60;79.00;;;;;;6195378;23;20188;-88
2022/01/09 05:39:34;;;;;;;8.77;2.00;;;6.70;79.10;;;;;;6189988;23;20153;-88
2022/01/09 05:42:03;;;;;;;6.45;2.25;;;6.70;79.10;;;;;;6216530;23;20579;-87
2022/01/09 05:44:28;;;;;;;9.38;2.13;;;6.60;78.80;;;;;;6190054;23;20153;-87
2022/01/09 05:46:55;;;;;;;9.23;2.97;;;6.60;79.00;;;;;;6190330;23;20173;-87
2022/01/09 05:49:21;;;;;;;14.98;3.13;;;6.70;79.20;;;;;;6189442;23;20503;-87
2022/01/09 05:51:47;;;;;;;16.83;2.47;;;6.60;79.00;;;;;;6188668;23;20158;-87
2022/01/09 05:54:13;;;;;;;9.00;2.30;;;6.60;79.00;;;;;;6215483;23;20149;-88
2022/01/09 05:56:38;;;;;;;12.10;3.60;;;6.70;78.90;;;;;;6189203;23;20204;-87
2022/01/09 05:59:04;;;;;;;7.73;2.17;;;6.60;78.90;;;;;;6190522;23;20208;-87
2022/01/09 06:01:30;;;;;;;14.53;2.43;;;6.50;79.00;;;;;;6190665;23;20153;-87
2022/01/09 06:03:55;;;;;;;10.87;2.27;;;6.40;79.00;;;;;;6194061;23;20161;-88
2022/01/09 06:06:21;;;;;;;9.70;2.97;;;6.40;79.20;;;;;;6193390;23;20525;-88
2022/01/09 06:08:47;;;;;;;10.87;2.27;;;6.30;79.30;;;;;;6190332;23;20181;-87
2022/01/09 06:11:13;;;;;;;10.43;2.50;;;6.40;79.40;;;;;;6189342;23;20168;-88
2022/01/09 06:13:38;;;;;;;14.87;3.33;;;6.30;79.60;;;;;;6188181;23;20161;-88
2022/01/09 06:16:04;;;;;;;11.47;3.30;;;6.20;79.70;;;;;;6215800;23;20441;-87
2022/01/09 06:18:30;;;;;;;23.70;3.55;;;6.30;79.90;;;;;;6189490;23;20156;-88
2022/01/09 06:20:56;;;;;;;10.37;2.20;;;6.20;80.00;;;;;;6189043;23;20157;-88
2022/01/09 06:23:23;;;;;;;13.20;2.50;;;6.20;80.10;;;;;;6188775;23;20149;-88
2022/01/09 06:25:52;;;;;;;6.35;2.47;;;6.20;80.40;;;;;;6215597;23;20445;-88
2022/01/09 06:28:18;;;;;;;11.95;2.30;;;6.20;80.40;;;;;;6188706;23;20149;-87
2022/01/09 06:30:44;;;;;;;7.10;2.63;;;6.10;80.60;;;;;;6215723;23;20196;-87
2022/01/09 06:33:11;;;;;;;11.05;2.75;;;6.10;80.70;;;;;;6215414;23;20376;-87
2022/01/09 06:35:44;;;;;;;9.73;2.17;;;6.10;80.90;;;;;;6188660;23;20173;-88
2022/01/09 06:38:10;;;;;;;9.95;2.70;;;6.10;81.60;;;;;;6190272;23;20436;-87
2022/01/09 06:40:36;;;;;;;11.90;2.47;;;6.20;81.00;;;;;;6190814;23;20157;-87
2022/01/09 06:43:03;;;;;;;10.20;2.47;;;6.10;81.00;;;;;;6190953;23;20157;-88
2022/01/09 06:45:29;;;;;;;17.13;2.25;;;6.10;81.10;;;;;;6191555;23;20554;-88
2022/01/09 06:47:56;;;;;;;6.87;2.40;;;6.10;81.00;;;;;;6222374;23;20149;-87
2022/01/09 06:50:23;;;;;;;21.00;3.13;;;6.10;81.20;;;;;;6197137;23;20976;-87
2022/01/09 06:52:48;;;;;;;12.70;3.90;;;6.10;81.40;;;;;;6191670;23;20157;-87
2022/01/09 06:55:15;;;;;;;13.20;3.23;;;6.10;81.50;;;;;;6190085;23;20157;-87
2022/01/09 06:57:41;;;;;;;9.73;2.35;;;6.20;81.50;;;;;;6191638;23;20244;-87
2022/01/09 07:00:09;;;;;;;16.45;3.55;;;6.10;81.60;;;;;;6218607;23;20592;-87
2022/01/09 07:02:34;;;;;;;12.25;2.67;;;6.20;81.70;;;;;;6193430;23;20157;-88
2022/01/09 07:05:00;;;;;;;19.77;2.90;;;6.20;81.50;;;;;;6190558;23;20154;-87
2022/01/09 07:07:26;;;;;;;11.93;2.50;;;6.20;81.40;;;;;;6216909;23;20181;-87
2022/01/09 07:09:51;;;;;;;17.37;2.40;;;6.30;81.40;;;;;;6191447;23;20715;-87
2022/01/09 07:12:19;;;;;;;8.60;2.30;;;6.30;81.40;;;;;;6192565;23;20753;-88
2022/01/09 07:14:45;;;;;;;14.57;2.75;;;6.30;81.50;;;;;;6205236;23;20153;-87
2022/01/09 07:17:11;;;;;;;18.40;3.40;;;6.30;81.70;;;;;;6217687;23;20210;-87
2022/01/09 07:19:37;;;;;;;10.90;2.60;;;6.40;81.80;;;;;;6190371;23;20157;-87
2022/01/09 07:22:06;;;;;;;8.23;2.63;;;6.40;81.50;;;;;;6191329;23;20392;-87
2022/01/09 07:24:33;;;;;;;18.88;2.10;;;6.50;81.40;;;;;;6194011;23;20161;-87
2022/01/09 07:26:58;;;;;;;18.13;3.05;;;6.40;81.10;;;;;;6235157;23;20169;-87
2022/01/09 07:29:25;;;;;;;8.23;2.20;;;6.30;81.20;;;;;;6196195;23;20562;-87
2022/01/09 07:31:51;;;;;;;9.98;2.53;;;6.30;81.40;;;;;;6195016;23;20464;-88
2022/01/09 07:34:21;;;;;;;14.88;2.90;;;6.20;81.50;;;;;;6194045;23;20475;-88
2022/01/09 07:36:47;;;;;;;11.32;2.45;;;6.10;81.90;;;;;;6190883;23;20177;-87
2022/01/09 07:39:13;;;;;;;11.05;3.30;;;6.10;82.20;;;;;;6190737;23;20167;-88
2022/01/09 07:41:40;;;;;;;5.90;2.22;;;6.10;82.40;;;;;;6194877;23;20457;-88
2022/01/09 07:44:06;;;;;;;10.20;2.63;;;6.10;82.50;;;;;;6192574;23;20162;-87
2022/01/09 07:46:32;;;;;;;13.63;5.10;;;6.10;82.70;;;;;;6216917;23;20208;-88
2022/01/09 07:48:58;;;;;;;8.80;4.30;;;6.00;82.70;;;;;;6189240;23;20177;-87
2022/01/09 07:51:27;;;;;;;13.40;2.77;;;6.00;82.80;;;;;;6189761;23;20167;-87
2022/01/09 07:53:53;;;;;;;8.50;2.28;;;6.00;83.00;;;;;;6189931;23;20157;-87
2022/01/09 07:56:18;;;;;;;16.43;3.00;;;6.10;83.10;;;;;;6190192;23;20177;-87
2022/01/09 07:58:44;;;;;;;11.77;2.80;;;6.10;83.10;;;;;;6216733;23;20662;-89
2022/01/09 08:01:10;;;;;;;6.53;2.20;;;6.30;83.10;;;;;;6191479;23;20169;-89
2022/01/09 08:03:35;;;;;;;5.40;1.80;;;6.20;82.60;;;;;;6189890;23;20479;-88
2022/01/09 08:06:02;;;;;;;6.50;2.00;;;6.10;82.50;;;;;;6190503;23;20204;-88
2022/01/09 08:08:28;;;;;;;7.13;2.33;;;6.20;82.40;;;;;;6190402;23;20149;-88
2022/01/09 08:10:56;;;;;;;6.88;1.40;;;6.20;82.20;;;;;;6190648;23;20153;-88
2022/01/09 08:13:22;;;;;;;8.98;2.33;;;6.20;81.90;;;;;;6216850;23;20165;-88
2022/01/09 08:15:47;;;;;;;6.22;2.05;;;6.20;81.80;;;;;;6190515;23;20180;-87
2022/01/09 08:18:13;;;;;;;11.20;2.53;;;6.30;81.80;;;;;;6191625;23;20544;-87
2022/01/09 08:20:39;;;;;;;5.05;2.22;;;6.50;81.80;;;;;;6191839;23;20385;-87
2022/01/09 08:23:05;;;;;;;9.30;1.90;;;6.40;81.50;;;;;;6190835;23;20215;-88
2022/01/09 08:25:31;;;;;;;4.17;1.60;;;6.50;81.40;;;;;;6191339;23;20418;-87
2022/01/09 08:27:57;;;;;;;11.43;3.42;;;6.50;81.30;;;;;;6217552;23;20411;-87
2022/01/09 08:30:24;;;;;;;16.53;2.37;;;6.50;81.10;;;;;;6192475;23;20554;-87
2022/01/09 08:32:57;;;;;;;6.78;2.05;;;6.60;81.00;;;;;;6193030;23;20377;-88
2022/01/09 08:35:22;;;;;;;15.32;2.80;;;6.60;81.00;;;;;;6191358;23;20797;-89
2022/01/09 08:37:54;;;;;;;8.63;1.70;;;6.60;80.80;;;;;;6191705;23;20180;-88
2022/01/09 08:40:22;;;;;;;9.27;2.03;;;6.60;80.70;;;;;;6192493;23;20380;-88
2022/01/09 08:42:49;;;;;;;3.97;1.95;;;6.80;80.80;;;;;;6192983;23;20161;-89
2022/01/09 08:45:16;;;;;;;13.38;2.70;;;6.90;80.70;;;;;;6192126;23;20158;-89
2022/01/09 08:47:43;;;;;;;9.98;2.83;;;6.90;80.50;;;;;;6192456;23;20491;-89
2022/01/09 08:50:18;;;;;;;10.60;2.65;;;7.00;80.40;;;;;;6220530;23;20172;-89
2022/01/09 08:52:45;;;;;;;13.73;2.95;;;7.00;80.10;;;;;;6192446;23;20152;-89
2022/01/09 08:55:11;;;;;;;7.68;2.65;;;6.90;79.80;;;;;;6195480;23;20153;-89
2022/01/09 08:57:36;;;;;;;14.63;3.00;;;7.10;80.00;;;;;;6192061;23;20153;-88
2022/01/09 09:00:06;;;;;;;12.70;3.10;;;7.00;79.60;;;;;;6192484;23;20396;-89
2022/01/09 09:02:32;;;;;;;7.80;3.30;;;7.00;79.70;;;;;;6194260;23;20161;-89
2022/01/09 09:05:00;;;;;;;7.77;3.10;;;7.10;79.90;;;;;;6209055;23;20176;-89
2022/01/09 09:07:25;;;;;;;8.68;2.70;;;7.10;80.00;;;;;;6213617;23;20216;-88
2022/01/09 09:09:51;;;;;;;10.47;2.90;;;7.10;80.20;;;;;;6198469;23;20521;-88
2022/01/09 09:12:18;;;;;;;9.02;2.63;;;7.00;80.10;;;;;;6192385;23;20153;-88
2022/01/09 09:14:46;;;;;;;10.93;2.75;;;7.00;80.30;;;;;;6192636;23;20207;-89
2022/01/09 09:17:12;;;;;;;10.07;2.40;;;7.00;80.20;;;;;;6195635;23;20199;-89
2022/01/09 09:19:38;;;;;;;9.93;2.17;;;7.00;80.50;;;;;;6212698;23;20157;-88
2022/01/09 09:22:04;;;;;;;15.30;2.87;;;6.90;80.80;;;;;;6205123;23;20213;-89
2022/01/09 09:24:37;;;;;;;9.67;2.90;;;6.80;80.90;;;;;;6196843;23;20400;-88
2022/01/09 09:27:04;;;;;;;13.60;3.53;;;6.90;81.20;;;;;;6219988;23;20412;-89
2022/01/09 09:29:29;;;;;;;7.15;2.95;;;6.90;81.00;;;;;;6194392;23;20636;-88
2022/01/09 09:31:56;;;;;;;7.83;3.07;;;6.90;81.10;;;;;;6192897;23;20161;-89
2022/01/09 09:34:21;;;;;;;14.32;3.80;;;6.80;81.00;;;;;;6191832;23;20443;-88
2022/01/09 09:36:47;;;;;;;9.20;3.70;;;6.90;81.30;;;;;;6192341;23;20177;-87
2022/01/09 09:39:14;;;;;;;14.98;3.72;;;7.10;81.40;;;;;;6194849;23;20487;-88
2022/01/09 09:41:41;;;;;;;7.03;2.70;;;7.00;81.30;;;;;;6190474;23;20234;-88
2022/01/09 09:44:09;;;;;;;10.30;3.05;;;7.10;81.50;;;;;;6190060;23;20161;-88
2022/01/09 09:46:36;;;;;;;7.55;3.00;;;7.10;81.70;;;;;;6217620;23;20173;-87
2022/01/09 09:49:08;;;;;;;22.70;3.50;;;7.10;82.50;;;;;;6192093;23;20342;-87
2022/01/09 09:51:33;;;;;;;11.02;3.05;;;7.20;82.30;;;;;;6218174;23;20134;-88
2022/01/09 09:53:59;;;;;;;10.57;3.47;;;7.20;82.30;;;;;;6190270;23;20168;-87
2022/01/09 09:56:25;;;;;;;10.60;2.90;;;7.30;82.50;;;;;;6191761;23;20208;-88
2022/01/09 09:58:52;;;;;;;7.13;2.67;;;7.30;82.20;;;;;;6196343;23;20554;-87
2022/01/09 10:01:23;;;;;;;13.07;3.20;;;7.40;82.20;;;;;;6194871;23;20392;-88
2022/01/09 10:03:58;;;;;;;8.93;2.70;;;7.40;81.80;;;;;;6194203;23;20168;-87
2022/01/09 10:06:35;;;;;;;8.50;3.00;;;7.50;81.80;;;;;;6195374;23;20198;-89
2022/01/09 10:09:11;;;;;;;9.07;2.78;;;7.50;81.70;;;;;;6193958;23;20183;-87
2022/01/09 10:12:00;;;;;;;10.50;3.35;;;7.40;81.40;;;;;;6218453;23;20141;-87
2022/01/09 10:14:33;;;;;;;9.57;3.08;;;7.60;81.20;;;;;;6194254;23;20481;-87
2022/01/09 10:17:11;;;;;;;13.75;4.05;;;7.60;81.30;;;;;;6220413;23;20226;-91
2022/01/09 10:19:48;;;;;;;7.00;3.63;;;7.70;81.30;;;;;;6193872;23;20149;-88
2022/01/09 10:22:30;;;;;;;10.07;3.80;;;7.80;81.20;;;;;;6193838;23;20615;-90
2022/01/09 10:24:57;;;;;;;11.10;3.50;;;8.00;81.00;;;;;;6193670;23;20145;-90
2022/01/09 10:27:34;;;;;;;8.30;3.10;;;8.10;81.00;;;;;;6220689;23;20197;-90
2022/01/09 10:30:03;;;;;;;10.50;3.42;;;8.20;80.50;;;;;;6199578;23;20170;-90
2022/01/09 10:32:30;;;;;;;11.27;3.78;;;8.50;80.10;;;;;;6194006;23;20157;-90
2022/01/09 10:35:08;;;;;;;14.95;3.72;;;8.50;79.40;;;;;;6193720;23;20175;-90
2022/01/09 10:37:35;;;;;;;14.70;4.28;;;8.60;79.00;;;;;;6193446;23;20482;-89
2022/01/09 10:40:02;;;;;;;17.50;2.95;;;8.60;79.00;;;;;;6193407;23;20164;-90
2022/01/09 10:42:28;;;;;;;15.10;3.92;;;8.50;78.40;;;;;;6194110;23;20244;-90
2022/01/09 10:44:54;;;;;;;12.20;2.43;;;8.60;77.50;;;;;;6193612;23;20189;-89
2022/01/09 10:47:20;;;;;;;13.20;3.87;;;8.50;77.70;;;;;;6193472;23;20196;-89
2022/01/09 10:49:49;;;;;;;21.85;4.40;;;8.50;77.80;;;;;;6194098;23;20173;-88
2022/01/09 10:52:28;;;;;;;10.48;2.88;;;8.50;78.40;;;;;;6193950;23;20149;-88
2022/01/09 10:55:03;;;;;;;11.52;3.40;;;8.40;77.70;;;;;;6194258;23;20160;-89
2022/01/09 10:57:32;;;;;;;14.45;3.67;;;8.40;78.20;;;;;;6204303;23;20173;-90
2022/01/09 11:00:06;;;;;;;21.08;4.05;;;8.50;77.60;;;;;;6211917;23;20475;-88
2022/01/09 11:02:32;;;;;;;10.43;3.83;;;8.60;77.10;;;;;;6200662;23;20153;-89
2022/01/09 11:05:07;;;;;;;9.83;3.40;;;8.70;76.70;;;;;;6201611;23;20680;-90
2022/01/09 11:07:34;;;;;;;10.57;3.42;;;8.50;76.90;;;;;;6224142;23;20192;-89
2022/01/09 11:10:01;;;;;;;10.20;2.83;;;8.50;77.10;;;;;;6201458;23;20501;-88
2022/01/09 11:12:45;;;;;;;15.50;4.70;;;8.50;77.10;;;;;;6216292;23;20154;-89
2022/01/09 11:15:13;;;;;;;5.90;2.90;;;8.40;77.30;;;;;;6202901;23;20554;-88
2022/01/09 11:17:40;;;;;;;15.98;3.40;;;8.50;77.40;;;;;;6196418;23;20157;-91
2022/01/09 11:20:06;;;;;;;15.43;3.53;;;8.50;77.30;;;;;;6196520;23;20629;-89
2022/01/09 11:22:32;;;;;;;7.50;3.97;;;8.50;77.60;;;;;;6192822;23;20284;-90
2022/01/09 11:25:11;;;;;;;15.43;3.20;;;8.70;77.10;;;;;;6194603;23;20187;-87
2022/01/09 11:28:01;;;;;;;19.95;3.80;;;8.80;77.00;;;;;;6196030;23;20151;-88
2022/01/09 11:30:36;;;;;;;13.50;3.35;;;9.00;76.70;;;;;;6221555;23;20518;-87
2022/01/09 11:33:32;;;;;;;12.88;4.50;;;9.30;76.80;;;;;;6193303;23;20152;-88
2022/01/09 11:36:35;;;;;;;17.42;4.40;;;9.20;75.40;;;;;;6218438;23;20196;-89
2022/01/09 11:39:11;;;;;;;8.93;2.70;;;9.20;75.20;;;;;;6193254;23;20211;-88
2022/01/09 11:41:39;;;;;;;8.18;2.90;;;9.20;75.50;;;;;;6193238;23;20509;-87
2022/01/09 11:44:31;;;;;;;15.00;2.90;;;9.30;75.10;;;;;;6218873;23;20149;-88
2022/01/09 11:46:58;;;;;;;13.45;3.63;;;9.30;74.40;;;;;;6192740;23;20185;-87
2022/01/09 11:49:25;;;;;;;10.52;3.47;;;9.70;73.50;;;;;;6220470;23;20169;-88
2022/01/09 11:52:00;;;;;;;8.10;4.07;;;9.90;73.00;;;;;;6218403;23;20747;-88
2022/01/09 11:54:27;;;;;;;15.80;4.10;;;9.90;72.60;;;;;;6218407;23;20133;-88
2022/01/09 11:57:10;;;;;;;10.73;3.78;;;10.10;72.20;;;;;;6192294;23;20324;-88
2022/01/09 11:59:38;;;;;;;13.82;3.30;;;10.00;71.70;;;;;;6192975;23;20738;-87
2022/01/09 12:02:16;;;;;;;8.57;3.10;;;10.00;71.70;;;;;;6219318;23;20221;-88
2022/01/09 12:04:42;;;;;;;19.15;3.67;;;10.00;71.50;;;;;;6191676;23;20658;-87
2022/01/09 12:07:30;;;;;;;13.33;3.33;;;9.80;71.90;;;;;;6218457;23;20191;-86
2022/01/09 12:10:35;;;;;;;20.40;4.72;;;9.80;72.70;;;;;;6217541;23;20443;-87
2022/01/09 12:13:03;;;;;;;13.55;4.10;;;9.80;72.60;;;;;;6219147;23;20133;-87
2022/01/09 12:15:47;;;;;;;16.05;4.88;;;9.70;72.70;;;;;;6192325;23;20153;-87
2022/01/09 12:18:42;;;;;;;8.13;4.28;;;9.90;72.60;;;;;;6192138;23;20141;-87
2022/01/09 12:21:09;;;;;;;7.85;3.63;;;10.00;72.20;;;;;;6218518;23;20159;-87
2022/01/09 12:23:35;;;;;;;9.18;3.10;;;9.90;72.00;;;;;;6192257;23;20646;-86
2022/01/09 12:26:01;;;;;;;7.70;3.93;;;9.70;71.80;;;;;;6192662;23;20177;-86
2022/01/09 12:28:38;;;;;;;9.60;4.03;;;9.70;71.80;;;;;;6191994;23;20157;-88
2022/01/09 12:31:05;;;;;;;11.48;5.75;;;9.80;71.40;;;;;;6193515;23;20467;-88
2022/01/09 12:33:32;;;;;;;13.07;4.95;;;9.90;71.20;;;;;;6192158;23;20244;-88
2022/01/09 12:36:26;;;;;;;13.00;4.65;;;9.90;70.60;;;;;;6219460;23;20695;-88
2022/01/09 12:38:59;;;;;;;17.55;4.55;;;10.00;70.60;;;;;;6189277;23;20153;-88
2022/01/09 12:41:27;;;;;;;26.65;4.90;;;9.90;70.60;;;;;;6194006;23;20141;-88
2022/01/09 12:44:00;;;;;;;10.55;4.53;;;9.70;70.10;;;;;;6220111;23;20146;-87
2022/01/09 12:46:29;;;;;;;12.40;4.28;;;9.60;70.20;;;;;;6195088;23;20180;-87
2022/01/09 12:49:05;;;;;;;12.25;3.47;;;9.50;70.70;;;;;;6204118;23;20165;-88
2022/01/09 12:51:32;;;;;;;7.70;3.50;;;9.40;70.90;;;;;;6203470;23;20150;-87
2022/01/09 12:54:00;;;;;;;9.95;3.60;;;9.30;71.00;;;;;;6196782;23;20161;-87
2022/01/09 12:56:29;;;;;;;21.65;4.47;;;9.20;70.90;;;;;;6199820;23;20177;-87